createdAt,value
2019-04-04T00:02:19.136Z,5.17
2019-04-04T00:04:47.576Z,5.41
2019-04-04T00:07:15.830Z,5.44
2019-04-04T00:09:44.105Z,5.37
2019-04-04T00:12:12.353Z,5.26
2019-04-04T00:14:43.504Z,5.10
2019-04-04T00:17:10.607Z,5.25
2019-04-04T00:19:38.881Z,5.02
2019-04-04T00:22:07.130Z,5.09
2019-04-04T00:24:35.406Z,5.17
2019-04-04T00:27:03.669Z,5.15
2019-04-04T00:29:33.286Z,5.16
2019-04-04T00:32:01.531Z,5.13
2019-04-04T00:34:29.820Z,5.14
2019-04-04T00:36:58.073Z,5.25
2019-04-04T00:39:26.351Z,5.28
2019-04-04T00:41:54.606Z,5.38
2019-04-04T00:44:23.741Z,5.21
2019-04-04T00:46:52.750Z,5.48
2019-04-04T00:49:21.346Z,5.36
2019-04-04T00:51:49.620Z,5.44
2019-04-04T00:54:17.873Z,5.34
2019-04-04T00:56:46.911Z,5.39
2019-04-04T00:59:16.129Z,5.37
2019-04-04T01:01:44.411Z,5.42
2019-04-04T01:04:12.960Z,5.44
2019-04-04T01:06:41.910Z,5.33
2019-04-04T01:09:13.098Z,5.50
2019-04-04T01:11:40.943Z,5.50
2019-04-04T01:14:09.208Z,5.22
2019-04-04T01:16:37.482Z,5.08
2019-04-04T01:19:05.734Z,5.10
2019-04-04T01:21:34.013Z,5.22
2019-04-04T01:24:02.347Z,5.06
2019-04-04T01:26:34.841Z,4.95
2019-04-04T01:29:01.379Z,4.80
2019-04-04T01:31:29.731Z,4.80
2019-04-04T01:33:57.981Z,4.60
2019-04-04T01:36:26.260Z,4.32
2019-04-04T01:38:54.517Z,4.23
2019-04-04T01:41:22.795Z,4.12
2019-04-04T01:44:04.316Z,4.05
2019-04-04T01:46:22.390Z,4.04
2019-04-04T01:48:50.963Z,4.12
2019-04-04T01:51:19.283Z,4.14
2019-04-04T01:53:48.954Z,3.94
2019-04-04T01:56:17.962Z,3.73
2019-04-04T01:58:46.239Z,3.62
2019-04-04T02:01:16.264Z,3.60
2019-04-04T02:03:44.489Z,3.55
2019-04-04T02:06:13.508Z,3.60
2019-04-04T02:08:41.792Z,3.48
2019-04-04T02:11:10.718Z,3.52
2019-04-04T02:13:40.885Z,3.63
2019-04-04T02:16:08.983Z,3.58
2019-04-04T02:18:37.263Z,3.73
2019-04-04T02:21:06.306Z,3.69
2019-04-04T02:23:34.565Z,3.83
2019-04-04T02:26:04.835Z,3.94
2019-04-04T02:28:33.065Z,3.92
2019-04-04T02:31:01.491Z,3.71
2019-04-04T02:33:32.410Z,3.86
2019-04-04T02:35:59.750Z,3.83
2019-04-04T02:38:28.299Z,3.80
2019-04-04T02:40:56.665Z,3.80
2019-04-04T02:43:28.388Z,3.92
2019-04-04T02:45:54.930Z,4.13
2019-04-04T02:48:24.703Z,4.18
2019-04-04T02:50:54.781Z,3.95
2019-04-04T02:53:23.063Z,3.84
2019-04-04T02:55:51.683Z,3.90
2019-04-04T02:58:19.964Z,4.09
2019-04-04T03:00:48.592Z,4.03
2019-04-04T03:03:17.435Z,4.24
2019-04-04T03:05:50.951Z,4.25
2019-04-04T03:08:15.701Z,4.38
2019-04-04T03:10:47.785Z,4.34
2019-04-04T03:13:14.627Z,4.25
2019-04-04T03:15:47.140Z,4.23
2019-04-04T03:18:12.885Z,4.29
2019-04-04T03:20:41.139Z,4.46
2019-04-04T03:23:09.390Z,4.44
2019-04-04T03:25:38.244Z,4.50
2019-04-04T03:28:06.510Z,4.54
2019-04-04T03:30:34.794Z,4.52
2019-04-04T03:33:03.646Z,4.23
2019-04-04T03:35:31.916Z,4.37
2019-04-04T03:38:00.143Z,4.46
2019-04-04T03:40:28.421Z,4.31
2019-04-04T03:42:56.685Z,4.14
2019-04-04T03:45:27.335Z,3.84
2019-04-04T03:47:55.512Z,3.74
2019-04-04T03:50:29.020Z,3.90
2019-04-04T03:52:55.105Z,3.91
2019-04-04T03:55:27.354Z,4.14
2019-04-04T03:57:55.142Z,3.83
2019-04-04T04:00:27.243Z,3.76
2019-04-04T04:02:55.494Z,3.82
2019-04-04T04:05:33.969Z,3.76
2019-04-04T04:07:58.872Z,3.74
2019-04-04T04:10:27.146Z,3.57
2019-04-04T04:12:55.401Z,3.52
2019-04-04T04:15:29.238Z,3.46
2019-04-04T04:17:55.437Z,3.38
2019-04-04T04:20:23.691Z,3.46
2019-04-04T04:22:52.738Z,3.63
2019-04-04T04:25:21.294Z,3.77
2019-04-04T04:27:50.544Z,3.63
2019-04-04T04:30:18.804Z,3.49
2019-04-04T04:32:47.648Z,3.46
2019-04-04T04:35:16.570Z,3.67
2019-04-04T04:37:44.847Z,3.62
2019-04-04T04:40:15.109Z,3.64
2019-04-04T04:42:43.633Z,3.50
2019-04-04T04:45:12.491Z,3.72
2019-04-04T04:47:41.221Z,3.95
2019-04-04T04:50:10.003Z,4.06
2019-04-04T04:52:38.429Z,3.81
2019-04-04T04:55:06.683Z,3.78
2019-04-04T04:57:37.141Z,3.64
2019-04-04T05:00:05.584Z,3.58
2019-04-04T05:02:33.866Z,3.56
2019-04-04T05:05:02.120Z,3.67
2019-04-04T05:07:31.329Z,3.81
2019-04-04T05:09:59.582Z,3.79
2019-04-04T05:12:27.857Z,3.74
2019-04-04T05:14:56.114Z,3.79
2019-04-04T05:17:24.961Z,3.92
2019-04-04T05:19:53.992Z,3.71
2019-04-04T05:22:22.265Z,3.64
2019-04-04T05:25:06.706Z,3.80
2019-04-04T05:27:20.544Z,3.85
2019-04-04T05:29:48.801Z,3.86
2019-04-04T05:32:17.081Z,3.80
2019-04-04T05:34:45.335Z,3.66
2019-04-04T05:37:13.636Z,3.69
2019-04-04T05:39:41.868Z,3.79
2019-04-04T05:42:10.720Z,3.83
2019-04-04T05:44:41.278Z,3.94
2019-04-04T05:47:09.556Z,3.98
2019-04-04T05:49:38.189Z,3.92
2019-04-04T05:52:08.934Z,3.88
2019-04-04T05:54:39.188Z,3.93
2019-04-04T05:57:07.845Z,3.84
2019-04-04T05:59:37.505Z,3.98
2019-04-04T06:02:05.775Z,3.75
2019-04-04T06:04:34.310Z,3.60
2019-04-04T06:07:04.345Z,3.63
2019-04-04T06:09:32.565Z,3.74
2019-04-04T06:12:00.843Z,4.04
2019-04-04T06:14:29.980Z,4.06
2019-04-04T06:16:58.956Z,4.24
2019-04-04T06:19:27.213Z,4.21
2019-04-04T06:21:55.492Z,4.15
2019-04-04T06:24:25.187Z,4.23
2019-04-04T06:26:53.725Z,4.28
2019-04-04T06:29:22.006Z,4.46
2019-04-04T06:31:50.930Z,4.59
2019-04-04T06:34:19.213Z,4.76
2019-04-04T06:36:49.060Z,4.78
2019-04-04T06:39:17.265Z,4.85
2019-04-04T06:41:46.298Z,4.89
2019-04-04T06:44:15.153Z,4.88
2019-04-04T06:46:43.395Z,4.84
2019-04-04T06:49:11.671Z,4.88
2019-04-04T06:51:40.700Z,4.93
2019-04-04T06:54:09.646Z,4.89
2019-04-04T06:56:37.902Z,4.92
2019-04-04T06:59:06.177Z,4.96
2019-04-04T07:01:34.433Z,4.95
2019-04-04T07:04:04.085Z,4.95
2019-04-04T07:06:32.306Z,5.06
2019-04-04T07:09:00.585Z,5.11
2019-04-04T07:11:28.842Z,5.18
2019-04-04T07:13:59.182Z,5.22
2019-04-04T07:16:27.665Z,5.23
2019-04-04T07:18:55.943Z,5.23
2019-04-04T07:21:24.534Z,5.19
2019-04-04T07:23:52.809Z,5.16
2019-04-04T07:26:21.068Z,5.19
2019-04-04T07:28:53.744Z,5.15
2019-04-04T07:31:20.667Z,5.21
2019-04-04T07:33:49.716Z,5.27
2019-04-04T07:36:18.185Z,5.24
2019-04-04T07:38:47.977Z,5.22
2019-04-04T07:41:16.492Z,5.13
2019-04-04T07:43:44.763Z,5.14
2019-04-04T07:46:16.839Z,5.21
2019-04-04T07:48:43.791Z,5.42
2019-04-04T07:51:12.047Z,5.30
2019-04-04T07:53:40.331Z,5.29
2019-04-04T07:56:08.584Z,5.26
2019-04-04T07:58:36.861Z,5.35
2019-04-04T08:01:05.891Z,5.50
2019-04-04T08:03:34.462Z,5.60
2019-04-04T08:06:02.714Z,5.58
2019-04-04T08:08:30.996Z,5.62
2019-04-04T08:10:59.818Z,5.66
2019-04-04T08:13:28.104Z,5.78
2019-04-04T08:15:56.355Z,5.63
2019-04-04T08:18:24.632Z,5.68
2019-04-04T08:20:52.886Z,5.66
2019-04-04T08:23:21.167Z,5.71
2019-04-04T08:25:49.422Z,5.69
2019-04-04T08:28:18.469Z,5.78
2019-04-04T08:30:46.725Z,5.92
2019-04-04T08:33:15.002Z,5.81
2019-04-04T08:35:43.260Z,5.77
2019-04-04T08:38:12.306Z,5.75
2019-04-04T08:40:40.566Z,5.74
2019-04-04T08:43:08.847Z,5.90
2019-04-04T08:45:37.104Z,5.82
2019-04-04T08:48:05.359Z,5.83
2019-04-04T08:50:33.641Z,5.95
2019-04-04T08:53:01.892Z,5.92
2019-04-04T08:55:30.169Z,5.86
2019-04-04T08:57:58.425Z,5.89
2019-04-04T09:00:27.470Z,5.95
2019-04-04T09:02:55.731Z,6.18
2019-04-04T09:05:24.007Z,6.14
2019-04-04T09:07:52.263Z,6.11
2019-04-04T09:10:21.317Z,6.29
2019-04-04T09:12:50.247Z,6.21
2019-04-04T09:15:18.526Z,6.30
2019-04-04T09:17:46.780Z,6.14
2019-04-04T09:20:15.055Z,6.17
2019-04-04T09:22:43.313Z,6.22
2019-04-04T09:25:11.591Z,6.17
2019-04-04T09:27:40.415Z,6.23
2019-04-04T09:30:09.807Z,6.21
2019-04-04T09:32:38.062Z,6.17
2019-04-04T09:35:07.113Z,6.28
2019-04-04T09:37:35.664Z,6.40
2019-04-04T09:40:05.979Z,6.51
2019-04-04T09:42:35.001Z,6.54
2019-04-04T09:45:04.085Z,6.42
2019-04-04T09:47:32.353Z,6.37
2019-04-04T09:50:01.201Z,6.45
2019-04-04T09:52:29.453Z,6.46
2019-04-04T09:54:58.010Z,6.37
2019-04-04T09:57:26.266Z,6.37
2019-04-04T09:59:54.554Z,6.23
2019-04-04T10:02:22.805Z,6.22
2019-04-04T10:04:51.111Z,6.19
2019-04-04T10:07:19.362Z,6.31
2019-04-04T10:09:47.647Z,6.24
2019-04-04T10:12:15.904Z,6.17
2019-04-04T10:14:44.186Z,6.26
2019-04-04T10:17:12.445Z,6.43
2019-04-04T10:19:40.724Z,6.50
2019-04-04T10:22:09.546Z,6.61
2019-04-04T10:24:38.393Z,6.59
2019-04-04T10:27:07.421Z,6.81
2019-04-04T10:29:35.698Z,6.72
2019-04-04T10:32:05.291Z,6.88
2019-04-04T10:34:33.545Z,6.80
2019-04-04T10:37:02.401Z,7.01
2019-04-04T10:39:32.787Z,6.99
2019-04-04T10:42:00.714Z,6.80
2019-04-04T10:44:29.475Z,6.88
2019-04-04T10:46:58.526Z,6.96
2019-04-04T10:49:27.356Z,6.98
2019-04-04T10:51:55.970Z,6.87
2019-04-04T10:54:24.217Z,6.68
2019-04-04T10:56:52.500Z,6.57
2019-04-04T10:59:20.754Z,6.70
2019-04-04T11:01:49.897Z,6.84
2019-04-04T11:04:18.150Z,6.92
2019-04-04T11:06:46.428Z,6.92
2019-04-04T11:09:14.681Z,6.93
2019-04-04T11:11:42.959Z,6.79
2019-04-04T11:14:11.296Z,6.71
2019-04-04T11:16:39.870Z,6.84
2019-04-04T11:19:09.807Z,6.98
2019-04-04T11:21:38.151Z,7.11
2019-04-04T11:24:06.405Z,7.33
2019-04-04T11:26:34.688Z,7.18
2019-04-04T11:29:02.942Z,7.04
2019-04-04T11:31:31.490Z,7.01
2019-04-04T11:34:01.082Z,6.85
2019-04-04T11:36:29.365Z,6.78
2019-04-04T11:38:57.630Z,6.83
2019-04-04T11:41:25.908Z,6.88
2019-04-04T11:43:54.831Z,6.84
2019-04-04T11:46:23.112Z,6.78
2019-04-04T11:48:51.933Z,6.81
2019-04-04T11:51:20.783Z,6.71
2019-04-04T11:53:49.039Z,6.71
2019-04-04T11:56:18.655Z,6.71
2019-04-04T11:58:46.905Z,6.57
2019-04-04T12:01:16.821Z,6.71
2019-04-04T12:03:45.079Z,6.58
2019-04-04T12:06:13.368Z,6.54
2019-04-04T12:08:41.888Z,6.60
2019-04-04T12:11:10.165Z,6.56
2019-04-04T12:13:38.995Z,6.64
2019-04-04T12:16:07.274Z,6.55
2019-04-04T12:18:35.526Z,6.51
2019-04-04T12:21:03.804Z,6.63
2019-04-04T12:23:32.628Z,6.63
2019-04-04T12:26:00.905Z,6.58
2019-04-04T12:28:29.440Z,6.65
2019-04-04T12:30:58.386Z,6.70
2019-04-04T12:33:26.643Z,6.74
2019-04-04T12:35:55.491Z,6.84
2019-04-04T12:38:23.748Z,6.89
2019-04-04T12:40:52.033Z,6.98
2019-04-04T12:43:20.286Z,6.97
2019-04-04T12:45:48.634Z,6.92
2019-04-04T12:48:16.889Z,6.82
2019-04-04T12:50:48.282Z,6.90
2019-04-04T12:53:16.387Z,6.79
2019-04-04T12:55:44.646Z,6.70
2019-04-04T12:58:12.918Z,6.73
2019-04-04T13:00:41.170Z,6.82
2019-04-04T13:03:09.446Z,6.97
2019-04-04T13:05:37.702Z,6.90
2019-04-04T13:08:05.983Z,6.84
2019-04-04T13:10:34.561Z,6.72
2019-04-04T13:13:02.841Z,6.62
2019-04-04T13:15:31.864Z,6.63
2019-04-04T13:18:00.714Z,6.64
2019-04-04T13:20:28.968Z,6.65
2019-04-04T13:22:57.246Z,6.61
2019-04-04T13:25:25.502Z,6.65
2019-04-04T13:27:53.785Z,6.62
2019-04-04T13:30:22.206Z,6.53
2019-04-04T13:32:50.492Z,6.69
2019-04-04T13:35:19.077Z,6.53
2019-04-04T13:37:47.351Z,6.57
2019-04-04T13:40:15.606Z,6.53
2019-04-04T13:42:43.883Z,6.49
2019-04-04T13:45:12.135Z,6.33
2019-04-04T13:47:40.669Z,6.31
2019-04-04T13:50:12.302Z,6.23
2019-04-04T13:52:38.617Z,6.17
2019-04-04T13:55:06.872Z,6.14
2019-04-04T13:57:35.151Z,6.19
2019-04-04T14:00:06.148Z,6.23
2019-04-04T14:02:34.431Z,6.15
2019-04-04T14:05:09.653Z,6.14
2019-04-04T14:07:33.622Z,6.23
2019-04-04T14:10:01.879Z,6.25
2019-04-04T14:12:30.235Z,6.30
2019-04-04T14:14:58.490Z,6.35
2019-04-04T14:17:26.769Z,6.34
2019-04-04T14:19:55.598Z,6.41
2019-04-04T14:22:24.446Z,6.38
2019-04-04T14:24:53.276Z,6.42
2019-04-04T14:27:21.563Z,6.34
2019-04-04T14:29:49.815Z,6.25
2019-04-04T14:32:20.929Z,6.22
2019-04-04T14:34:48.069Z,6.35
2019-04-04T14:37:16.351Z,6.38
2019-04-04T14:39:45.381Z,6.26
2019-04-04T14:42:14.230Z,6.23
2019-04-04T14:44:42.492Z,6.39
2019-04-04T14:47:10.749Z,6.31
2019-04-04T14:49:39.026Z,6.17
2019-04-04T14:52:07.302Z,6.21
2019-04-04T14:54:35.567Z,6.23
2019-04-04T14:57:03.823Z,6.23
2019-04-04T14:59:32.570Z,6.22
2019-04-04T15:02:01.399Z,6.32
2019-04-04T15:04:29.678Z,6.35
2019-04-04T15:06:57.938Z,6.26
2019-04-04T15:09:26.892Z,6.32
2019-04-04T15:11:55.147Z,6.37
2019-04-04T15:14:23.994Z,6.35
2019-04-04T15:16:52.584Z,6.35
2019-04-04T15:19:21.430Z,6.36
2019-04-04T15:21:49.686Z,6.36
2019-04-04T15:24:17.966Z,6.23
2019-04-04T15:26:46.493Z,6.20
2019-04-04T15:29:15.546Z,6.23
2019-04-04T15:31:44.570Z,6.33
2019-04-04T15:34:12.855Z,6.31
2019-04-04T15:36:41.109Z,6.37
2019-04-04T15:39:10.167Z,6.31
2019-04-04T15:41:38.429Z,6.43
2019-04-04T15:44:06.708Z,6.43
2019-04-04T15:46:34.968Z,6.34
2019-04-04T15:49:03.253Z,6.44
2019-04-04T15:51:31.509Z,6.35
2019-04-04T15:53:59.790Z,6.35
2019-04-04T15:56:28.045Z,6.32
2019-04-04T15:58:56.323Z,6.36
2019-04-04T16:01:24.578Z,6.25
2019-04-04T16:03:53.953Z,6.33
2019-04-04T16:06:22.879Z,6.38
2019-04-04T16:08:51.163Z,6.33
2019-04-04T16:11:19.420Z,6.38
2019-04-04T16:13:47.700Z,6.30
2019-04-04T16:16:15.967Z,6.30
2019-04-04T16:18:44.237Z,6.33
2019-04-04T16:21:12.498Z,6.23
2019-04-04T16:23:41.094Z,6.19
2019-04-04T16:26:10.090Z,6.16
2019-04-04T16:28:38.367Z,6.30
2019-04-04T16:31:06.624Z,6.31
2019-04-04T16:33:36.239Z,6.36
2019-04-04T16:36:05.567Z,6.22
2019-04-04T16:38:34.028Z,6.21
2019-04-04T16:41:02.847Z,6.20
2019-04-04T16:43:31.128Z,6.21
2019-04-04T16:45:59.954Z,6.15
2019-04-04T16:48:28.211Z,6.19
2019-04-04T16:50:56.489Z,6.25
2019-04-04T16:53:24.916Z,6.12
2019-04-04T16:55:53.194Z,6.21
2019-04-04T16:58:21.451Z,6.24
2019-04-04T17:00:49.727Z,6.18
2019-04-04T17:03:18.656Z,6.17
2019-04-04T17:05:46.933Z,6.06
2019-04-04T17:08:15.217Z,6.02
2019-04-04T17:10:44.105Z,6.04
2019-04-04T17:13:12.363Z,6.05
2019-04-04T17:15:41.406Z,6.08
2019-04-04T17:18:09.662Z,5.98
2019-04-04T17:20:38.520Z,5.99
2019-04-04T17:23:06.849Z,6.00
2019-04-04T17:25:35.131Z,6.00
2019-04-04T17:28:03.432Z,5.90
2019-04-04T17:30:32.477Z,5.80
2019-04-04T17:33:01.132Z,5.79
2019-04-04T17:35:29.859Z,5.72
2019-04-04T17:37:58.119Z,5.75
2019-04-04T17:40:26.392Z,5.71
2019-04-04T17:42:54.697Z,5.68
2019-04-04T17:45:25.247Z,5.63
2019-04-04T17:47:53.576Z,5.53
2019-04-04T17:50:21.904Z,5.46
2019-04-04T17:52:50.629Z,5.56
2019-04-04T17:55:18.949Z,5.50
2019-04-04T17:57:47.738Z,5.50
2019-04-04T18:00:16.410Z,5.48
2019-04-04T18:02:44.686Z,5.50
2019-04-04T18:05:13.534Z,5.46
2019-04-04T18:07:41.794Z,5.51
2019-04-04T18:12:42.537Z,5.52
2019-04-04T18:15:10.821Z,5.49
2019-04-04T18:17:39.082Z,5.43
2019-04-04T18:20:07.736Z,5.40
2019-04-04T18:22:36.064Z,5.41
2019-04-04T18:25:08.067Z,5.33
2019-04-04T18:27:36.325Z,5.32
2019-04-04T18:30:07.865Z,5.39
2019-04-04T18:32:36.122Z,5.40
2019-04-04T18:35:06.217Z,5.29
2019-04-04T18:37:34.556Z,5.34
2019-04-04T18:40:03.203Z,5.27
2019-04-04T18:42:31.459Z,5.24
2019-04-04T18:44:59.747Z,5.17
2019-04-04T18:47:28.003Z,5.14
2019-04-04T18:49:56.285Z,5.16
2019-04-04T18:52:24.538Z,5.18
2019-04-04T18:54:52.800Z,5.23
2019-04-04T18:57:21.082Z,5.23
2019-04-04T18:59:49.341Z,5.27
2019-04-04T19:02:17.613Z,5.21
2019-04-04T19:04:45.872Z,5.19
2019-04-04T19:07:14.155Z,5.15
2019-04-04T19:09:42.417Z,5.23
2019-04-04T19:12:10.695Z,5.21
2019-04-04T19:14:38.952Z,5.13
2019-04-04T19:17:07.226Z,5.17
2019-04-04T19:19:35.486Z,5.19
2019-04-04T19:22:03.770Z,5.17
2019-04-04T19:24:32.022Z,5.15
2019-04-04T19:27:00.303Z,5.20
2019-04-04T19:29:31.416Z,5.18
2019-04-04T19:31:58.563Z,5.12
2019-04-04T19:34:26.829Z,5.25
2019-04-04T19:36:55.368Z,5.26
2019-04-04T19:39:23.627Z,5.22
2019-04-04T19:41:51.902Z,5.24
2019-04-04T19:44:20.165Z,5.16
2019-04-04T19:46:48.453Z,5.19
2019-04-04T19:49:16.702Z,5.19
2019-04-04T19:51:44.988Z,5.11
2019-04-04T19:54:13.239Z,5.17
2019-04-04T19:56:41.607Z,5.18
2019-04-04T19:59:09.858Z,5.13
2019-04-04T20:01:38.198Z,5.07
2019-04-04T20:04:06.464Z,5.17
2019-04-04T20:06:34.749Z,5.20
2019-04-04T20:09:03.006Z,5.19
2019-04-04T20:11:31.282Z,5.07
2019-04-04T20:13:59.543Z,5.14
2019-04-04T20:16:27.822Z,5.04
2019-04-04T20:18:56.073Z,5.06
2019-04-04T20:21:24.352Z,5.07
2019-04-04T20:23:52.610Z,5.12
2019-04-04T20:26:21.553Z,5.09
2019-04-04T20:28:49.806Z,5.04
2019-04-04T20:31:18.088Z,5.11
2019-04-04T20:33:46.343Z,5.07
2019-04-04T20:36:14.621Z,5.09
2019-04-04T20:38:43.559Z,5.13
2019-04-04T20:41:12.601Z,5.13
2019-04-04T20:43:43.476Z,5.09
2019-04-04T20:46:12.264Z,5.08
2019-04-04T20:48:40.518Z,5.04
2019-04-04T20:51:08.770Z,5.10
2019-04-04T20:53:37.057Z,5.07
2019-04-04T20:56:05.659Z,5.09
2019-04-04T20:58:33.940Z,5.01
2019-04-04T21:01:02.225Z,5.06
2019-04-04T21:03:30.509Z,4.98
2019-04-04T21:05:58.763Z,4.95
2019-04-04T21:08:27.055Z,5.07
2019-04-04T21:10:55.312Z,5.01
2019-04-04T21:13:23.858Z,4.97
2019-04-04T21:15:52.129Z,5.02
2019-04-04T21:18:20.406Z,5.00
2019-04-04T21:20:48.662Z,5.02
2019-04-04T21:23:17.225Z,4.95
2019-04-04T21:25:45.480Z,5.01
2019-04-04T21:28:13.826Z,4.95
2019-04-04T21:30:42.858Z,4.98
2019-04-04T21:33:11.142Z,4.92
2019-04-04T21:35:39.962Z,4.95
2019-04-04T21:38:08.817Z,4.97
2019-04-04T21:40:37.075Z,4.87
2019-04-04T21:43:05.356Z,4.79
2019-04-04T21:45:33.621Z,4.75
2019-04-04T21:48:01.900Z,4.78
2019-04-04T21:50:30.155Z,4.76
2019-04-04T21:52:58.435Z,4.70
2019-04-04T21:55:26.690Z,4.75
2019-04-04T21:57:55.533Z,4.74
2019-04-04T22:00:25.425Z,4.77
2019-04-04T22:02:53.706Z,4.78
2019-04-04T22:05:22.539Z,4.71
2019-04-04T22:07:50.818Z,4.74
2019-04-04T22:10:19.074Z,4.75
2019-04-04T22:12:48.120Z,4.75
2019-04-04T22:15:16.379Z,4.73
2019-04-04T22:17:44.659Z,4.74
2019-04-04T22:20:12.917Z,4.74
2019-04-04T22:22:41.763Z,4.81
2019-04-04T22:25:10.023Z,4.82
2019-04-04T22:27:38.306Z,4.88
2019-04-04T22:30:09.389Z,4.81
2019-04-04T22:32:37.678Z,4.82
2019-04-04T22:35:06.602Z,4.78
2019-04-04T22:37:35.545Z,4.68
2019-04-04T22:40:06.043Z,4.83
2019-04-04T22:42:34.324Z,4.76
2019-04-04T22:45:03.349Z,4.66
2019-04-04T22:47:32.399Z,4.64
2019-04-04T22:50:00.656Z,4.67
2019-04-04T22:52:29.707Z,4.73
2019-04-04T22:54:57.963Z,4.68
2019-04-04T22:57:26.992Z,4.72
2019-04-04T22:59:55.265Z,4.76
2019-04-04T23:02:24.094Z,4.74
2019-04-04T23:04:52.376Z,4.81
2019-04-04T23:07:20.632Z,4.77
2019-04-04T23:09:49.583Z,4.76
2019-04-04T23:12:17.841Z,4.66
2019-04-04T23:14:48.401Z,4.70
2019-04-04T23:17:17.397Z,4.67
2019-04-04T23:19:45.676Z,4.76
2019-04-04T23:22:13.929Z,4.85
2019-04-04T23:24:42.214Z,4.90
2019-04-04T23:27:10.472Z,4.78
2019-04-04T23:29:38.757Z,4.79
2019-04-04T23:32:07.016Z,4.75
2019-04-04T23:34:35.301Z,4.76
2019-04-04T23:37:03.564Z,4.77
2019-04-04T23:39:31.842Z,4.77
2019-04-04T23:42:00.106Z,4.79
2019-04-04T23:44:28.386Z,4.76
2019-04-04T23:46:56.656Z,4.69
2019-04-04T23:49:24.957Z,4.75
2019-04-04T23:51:53.200Z,4.79
2019-04-04T23:54:21.489Z,4.76
2019-04-04T23:56:50.314Z,4.81
2019-04-04T23:59:18.597Z,4.78
